Time;durP1;ratioP1;P1;durP2;ratioP2;P2;SDS_P1;SDS_P2;PMS_P1;PMS_P2;Temp;Humidity;BMP_temperature;BMP_pressure;BME280_temperature;BME280_humidity;BME280_pressure;Samples;Min_cycle;Max_cycle;Signal;HPM_P1;HPM_P2
2022/09/30 00:01:20;;;;;;;7.30;3.33;;;11.10;99.90;;;;;;5054005;28;20029;-75
2022/09/30 00:03:48;;;;;;;5.25;3.00;;;11.20;99.90;;;;;;5054071;28;20461;-75
2022/09/30 00:06:14;;;;;;;6.05;3.78;;;11.20;99.90;;;;;;5036065;28;20025;-75
2022/09/30 00:08:40;;;;;;;5.22;2.90;;;11.20;99.90;;;;;;5036023;28;20496;-75
2022/09/30 00:11:07;;;;;;;5.22;2.47;;;11.20;99.90;;;;;;5035862;28;20029;-75
2022/09/30 00:13:36;;;;;;;6.45;3.03;;;11.20;99.90;;;;;;5053853;28;20032;-75
2022/09/30 00:16:02;;;;;;;;;;;11.20;99.90;;;;;;5036265;28;20119;-75
2022/09/30 00:18:28;;;;;;;7.30;2.97;;;11.20;99.90;;;;;;5036335;28;19948;-75
2022/09/30 00:20:54;;;;;;;4.38;2.35;;;11.10;99.90;;;;;;5035920;28;20441;-75
2022/09/30 00:23:20;;;;;;;4.88;2.47;;;11.20;99.90;;;;;;5054077;28;20067;-75
2022/09/30 00:25:47;;;;;;;3.80;2.63;;;11.20;99.90;;;;;;5053389;28;20096;-75
2022/09/30 00:28:14;;;;;;;2.97;2.42;;;11.20;99.90;;;;;;5035801;28;20060;-75
2022/09/30 00:30:40;;;;;;;5.40;2.88;;;11.10;99.90;;;;;;5053703;28;20054;-75
2022/09/30 00:33:05;;;;;;;3.92;2.40;;;11.20;99.90;;;;;;5035901;28;20029;-75
2022/09/30 00:35:31;;;;;;;4.53;2.60;;;11.20;99.90;;;;;;5035724;28;20021;-75
2022/09/30 00:37:58;;;;;;;4.63;2.47;;;11.20;99.90;;;;;;5035747;28;20025;-75
2022/09/30 00:40:24;;;;;;;7.18;2.42;;;11.10;99.90;;;;;;5036791;28;20037;-75
2022/09/30 00:42:50;;;;;;;2.35;2.13;;;11.10;99.90;;;;;;5057177;28;20351;-74
2022/09/30 00:45:17;;;;;;;3.58;2.60;;;11.10;99.90;;;;;;5057682;28;20025;-75
2022/09/30 00:47:53;;;;;;;4.57;2.92;;;11.10;99.90;;;;;;5039732;28;20115;-75
2022/09/30 00:50:28;;;;;;;3.10;2.33;;;11.10;99.90;;;;;;5040120;28;20029;-75
2022/09/30 00:52:59;;;;;;;3.03;2.28;;;11.10;99.90;;;;;;5057708;28;20107;-75
2022/09/30 00:55:35;;;;;;;3.60;2.50;;;11.10;99.90;;;;;;5057491;28;20060;-75
2022/09/30 00:58:04;;;;;;;4.78;2.40;;;11.10;99.90;;;;;;5039622;28;20116;-75
2022/09/30 01:00:30;;;;;;;2.90;2.20;;;11.00;99.90;;;;;;5057408;28;20059;-75
2022/09/30 01:02:56;;;;;;;5.25;2.47;;;11.10;99.90;;;;;;5056793;28;20045;-75
2022/09/30 01:05:25;;;;;;;2.85;2.55;;;11.00;99.90;;;;;;5057416;28;20032;-75
2022/09/30 01:07:52;;;;;;;2.60;2.40;;;11.10;99.90;;;;;;5039055;28;20036;-75
2022/09/30 01:10:18;;;;;;;3.90;2.50;;;11.10;99.90;;;;;;5039653;28;20037;-75
2022/09/30 01:12:43;;;;;;;5.93;2.88;;;11.10;99.90;;;;;;5057255;28;20412;-75
2022/09/30 01:15:09;;;;;;;3.40;2.50;;;11.10;99.90;;;;;;5039296;28;20380;-75
2022/09/30 01:18:02;;;;;;;3.30;2.78;;;11.10;99.90;;;;;;5056876;28;20025;-75
2022/09/30 01:20:49;;;;;;;4.70;2.50;;;11.10;99.90;;;;;;5057080;28;20025;-75
2022/09/30 01:23:48;;;;;;;4.00;2.63;;;11.10;99.90;;;;;;5038978;28;20029;-75
2022/09/30 01:26:48;;;;;;;5.70;2.30;;;11.10;99.90;;;;;;5039084;28;20521;-75
2022/09/30 01:29:28;;;;;;;4.43;2.72;;;11.10;99.90;;;;;;5056934;28;20044;-75
2022/09/30 01:32:00;;;;;;;;;;;11.10;99.90;;;;;;5057235;28;20051;-75
2022/09/30 01:34:41;;;;;;;3.40;2.50;;;11.10;99.90;;;;;;5038901;28;19976;-75
2022/09/30 01:37:21;;;;;;;5.88;3.10;;;11.00;99.90;;;;;;5056793;28;20028;-75
2022/09/30 01:39:52;;;;;;;8.75;2.97;;;11.10;99.90;;;;;;5056273;28;20029;-75
2022/09/30 01:42:18;;;;;;;3.50;2.92;;;11.10;99.90;;;;;;5056622;28;20048;-75
2022/09/30 01:45:03;;;;;;;5.13;2.55;;;11.10;99.90;;;;;;5056952;28;20458;-75
2022/09/30 01:47:57;;;;;;;4.00;2.65;;;11.10;99.90;;;;;;5038721;28;20465;-75
2022/09/30 01:50:54;;;;;;;3.28;2.67;;;11.10;99.90;;;;;;5055981;28;20029;-75
2022/09/30 01:53:47;;;;;;;4.82;2.55;;;11.20;99.90;;;;;;5036400;28;20075;-75
2022/09/30 01:56:29;;;;;;;4.53;2.53;;;11.10;99.90;;;;;;5037389;28;20457;-75
2022/09/30 01:58:58;;;;;;;6.97;2.80;;;11.20;99.90;;;;;;5056711;28;20036;-75
2022/09/30 02:01:50;;;;;;;4.43;2.17;;;11.20;99.90;;;;;;5056282;28;20033;-75
2022/09/30 02:04:25;;;;;;;5.53;2.70;;;11.20;99.90;;;;;;5033156;28;20045;-74
2022/09/30 02:06:56;;;;;;;3.47;2.63;;;11.20;99.90;;;;;;5056275;28;20052;-74
2022/09/30 02:09:32;;;;;;;2.70;2.50;;;11.20;99.90;;;;;;5056106;28;20040;-74
2022/09/30 02:12:03;;;;;;;3.95;2.72;;;11.20;99.90;;;;;;5055793;28;20051;-74
2022/09/30 02:14:38;;;;;;;6.13;2.78;;;11.20;99.90;;;;;;5038342;28;20033;-75
2022/09/30 02:17:14;;;;;;;9.43;3.10;;;11.20;99.90;;;;;;5038570;28;20492;-74
2022/09/30 02:19:49;;;;;;;7.68;2.90;;;11.20;99.90;;;;;;5056202;28;20048;-74
2022/09/30 02:22:28;;;;;;;3.00;2.70;;;11.10;99.90;;;;;;5056076;28;20025;-74
2022/09/30 02:25:03;;;;;;;4.28;2.92;;;11.10;99.90;;;;;;5056000;28;20051;-74
2022/09/30 02:27:41;;;;;;;4.38;2.55;;;11.10;99.90;;;;;;5038105;28;20465;-74
2022/09/30 02:30:09;;;;;;;3.25;2.70;;;11.10;99.90;;;;;;5037893;28;20426;-74
2022/09/30 02:32:40;;;;;;;8.02;3.10;;;11.10;99.90;;;;;;5037818;28;20033;-74
2022/09/30 02:35:14;;;;;;;7.35;2.85;;;11.10;99.90;;;;;;5055702;28;20025;-74
2022/09/30 02:37:44;;;;;;;5.55;2.50;;;11.10;99.90;;;;;;5037860;28;20492;-74
2022/09/30 02:40:27;;;;;;;5.25;2.90;;;11.10;99.90;;;;;;5037490;28;20040;-74
2022/09/30 02:42:53;;;;;;;4.97;2.92;;;11.10;99.90;;;;;;5037610;28;20353;-74
2022/09/30 02:45:21;;;;;;;3.28;2.53;;;11.00;99.90;;;;;;5037544;28;20376;-74
2022/09/30 02:48:12;;;;;;;5.78;3.22;;;11.00;99.90;;;;;;5037589;28;20078;-74
2022/09/30 02:50:47;;;;;;;3.70;2.58;;;11.00;99.90;;;;;;5037420;28;20025;-74
2022/09/30 02:53:27;;;;;;;5.68;3.47;;;11.00;99.90;;;;;;5037436;28;20079;-75
2022/09/30 02:56:23;;;;;;;7.22;4.13;;;11.00;99.90;;;;;;5055474;28;20053;-75
2022/09/30 02:58:51;;;;;;;5.15;4.18;;;11.00;99.90;;;;;;5037326;28;20112;-75
2022/09/30 03:01:17;;;;;;;11.90;3.75;;;11.00;99.90;;;;;;5054838;28;20536;-75
2022/09/30 03:03:59;;;;;;;8.35;3.95;;;11.00;99.90;;;;;;5054546;28;20132;-75
2022/09/30 03:06:25;;;;;;;7.22;4.47;;;11.00;99.90;;;;;;5037218;28;20029;-75
2022/09/30 03:08:52;;;;;;;6.78;3.90;;;11.00;99.90;;;;;;5054787;28;20469;-75
2022/09/30 03:11:22;;;;;;;8.88;4.28;;;11.00;99.90;;;;;;5054749;28;20031;-75
2022/09/30 03:13:54;;;;;;;6.57;4.80;;;11.00;99.90;;;;;;5036937;28;20032;-75
2022/09/30 03:17:02;;;;;;;9.98;4.60;;;11.00;99.90;;;;;;5037066;28;20021;-75
2022/09/30 03:19:52;;;;;;;4.97;3.92;;;11.00;99.90;;;;;;5042149;28;20068;-75
2022/09/30 03:22:33;;;;;;;5.40;3.78;;;11.00;99.90;;;;;;5036817;28;20070;-75
2022/09/30 03:25:10;;;;;;;11.25;4.25;;;11.00;99.90;;;;;;5036784;28;20043;-76
2022/09/30 03:28:12;;;;;;;7.15;4.30;;;11.00;99.90;;;;;;5054353;28;20423;-76
2022/09/30 03:31:02;;;;;;;7.30;4.15;;;11.00;99.90;;;;;;5054488;28;20025;-76
2022/09/30 03:33:50;;;;;;;7.93;4.60;;;11.00;99.90;;;;;;5053426;28;20045;-76
2022/09/30 03:36:28;;;;;;;5.40;4.20;;;11.00;99.90;;;;;;5054474;28;20064;-77
2022/09/30 03:39:02;;;;;;;6.82;4.53;;;11.00;99.90;;;;;;5054105;28;20025;-77
2022/09/30 03:41:43;;;;;;;6.20;4.10;;;11.00;99.90;;;;;;5054669;28;20025;-77
2022/09/30 03:44:21;;;;;;;8.75;4.55;;;11.00;99.90;;;;;;5036572;28;20079;-77
2022/09/30 03:47:23;;;;;;;7.88;4.75;;;11.00;99.90;;;;;;5052880;28;20028;-77
2022/09/30 03:49:53;;;;;;;7.50;4.30;;;11.00;99.90;;;;;;4954006;29;20033;-77
2022/09/30 03:52:19;;;;;;;10.15;5.07;;;11.00;99.90;;;;;;5037335;28;20041;-77
2022/09/30 03:54:50;;;;;;;5.43;4.47;;;11.00;99.90;;;;;;5054162;28;20033;-77
2022/09/30 03:57:15;;;;;;;8.63;5.10;;;11.00;99.90;;;;;;5053987;28;20103;-77
2022/09/30 03:59:41;;;;;;;6.85;4.65;;;11.00;99.90;;;;;;5053889;28;20100;-77
2022/09/30 04:02:09;;;;;;;9.55;5.10;;;11.00;99.90;;;;;;5054342;28;20028;-77
2022/09/30 04:04:35;;;;;;;6.47;5.03;;;10.90;99.90;;;;;;5035979;28;20056;-80
2022/09/30 04:07:01;;;;;;;9.60;5.75;;;10.90;99.90;;;;;;5054016;28;20025;-78
2022/09/30 04:09:27;;;;;;;9.45;5.57;;;10.80;99.90;;;;;;5036011;28;20112;-79
2022/09/30 04:11:52;;;;;;;8.82;5.93;;;10.80;99.90;;;;;;5053772;28;20516;-77
2022/09/30 04:14:18;;;;;;;12.43;7.03;;;10.80;99.90;;;;;;5053651;28;20090;-78
2022/09/30 04:16:43;;;;;;;11.43;7.18;;;10.80;99.90;;;;;;5035458;28;20359;-77
2022/09/30 04:19:09;;;;;;;8.50;5.97;;;10.80;99.90;;;;;;5053698;28;20052;-78
2022/09/30 04:21:35;;;;;;;12.93;6.55;;;10.90;99.90;;;;;;5054162;28;20059;-74
2022/09/30 04:24:00;;;;;;;8.15;6.43;;;10.90;99.90;;;;;;5036049;28;20447;-74
2022/09/30 04:26:26;;;;;;;13.35;5.68;;;10.90;99.90;;;;;;5053408;28;20516;-74
2022/09/30 04:28:52;;;;;;;7.38;5.97;;;10.90;99.90;;;;;;5035788;28;20036;-74
2022/09/30 04:31:20;;;;;;;8.80;5.63;;;10.90;99.90;;;;;;5053500;28;20376;-74
2022/09/30 04:33:46;;;;;;;8.95;5.70;;;10.90;99.90;;;;;;5035707;28;20555;-75
2022/09/30 04:36:11;;;;;;;6.55;5.75;;;10.90;99.90;;;;;;5035660;28;20067;-75
2022/09/30 04:38:38;;;;;;;11.13;6.05;;;10.90;99.90;;;;;;5035631;28;20123;-78
2022/09/30 04:41:05;;;;;;;12.98;7.47;;;10.80;99.90;;;;;;5035620;28;20183;-76
2022/09/30 04:43:33;;;;;;;10.52;6.72;;;10.80;99.90;;;;;;5053285;28;20108;-77
2022/09/30 04:45:58;;;;;;;12.38;7.40;;;10.70;99.90;;;;;;5035911;28;20029;-75
2022/09/30 04:48:26;;;;;;;11.13;7.78;;;10.80;99.90;;;;;;5053597;28;20029;-76
2022/09/30 04:50:52;;;;;;;12.32;7.72;;;10.80;99.90;;;;;;5053523;28;20021;-76
2022/09/30 04:53:19;;;;;;;10.82;7.78;;;10.80;99.90;;;;;;5036084;28;20040;-76
2022/09/30 04:55:45;;;;;;;13.50;8.30;;;10.80;99.90;;;;;;5035477;28;20036;-76
2022/09/30 04:58:11;;;;;;;10.07;7.47;;;10.80;99.90;;;;;;5053238;28;20025;-76
2022/09/30 05:00:37;;;;;;;13.35;8.57;;;10.80;99.90;;;;;;5035533;28;20032;-76
2022/09/30 05:03:04;;;;;;;16.25;9.15;;;10.80;99.90;;;;;;5035385;28;20083;-75
2022/09/30 05:05:31;;;;;;;12.05;8.63;;;10.80;99.90;;;;;;5053497;28;20025;-76
2022/09/30 05:08:02;;;;;;;12.55;9.48;;;10.90;99.90;;;;;;5035189;28;20474;-77
2022/09/30 05:10:28;;;;;;;15.25;9.02;;;10.90;99.90;;;;;;5035302;28;20451;-76
2022/09/30 05:12:55;;;;;;;14.93;10.27;;;10.80;99.90;;;;;;5053413;28;20096;-76
2022/09/30 05:15:21;;;;;;;16.95;11.10;;;10.80;99.90;;;;;;5035379;28;20032;-75
2022/09/30 05:17:51;;;;;;;15.07;11.13;;;10.80;99.90;;;;;;5035520;28;20025;-76
2022/09/30 05:20:17;;;;;;;17.08;12.55;;;10.70;99.90;;;;;;5035440;28;20060;-75
2022/09/30 05:22:42;;;;;;;17.13;12.32;;;10.70;99.90;;;;;;5035447;28;20063;-75
2022/09/30 05:25:09;;;;;;;16.10;12.85;;;10.60;99.90;;;;;;5035545;28;20029;-75
2022/09/30 05:27:34;;;;;;;18.48;13.55;;;10.60;99.90;;;;;;5038208;28;20158;-75
2022/09/30 05:30:00;;;;;;;17.10;12.88;;;10.60;99.90;;;;;;5038979;28;20033;-75
2022/09/30 05:32:26;;;;;;;18.55;14.35;;;10.50;99.90;;;;;;5039136;28;20120;-75
2022/09/30 05:34:54;;;;;;;15.43;13.43;;;10.50;99.90;;;;;;5056875;28;20040;-75
2022/09/30 05:37:19;;;;;;;18.73;14.68;;;10.40;99.90;;;;;;5056722;28;20060;-75
2022/09/30 05:39:45;;;;;;;22.08;15.80;;;10.50;99.90;;;;;;5057335;28;20025;-75
2022/09/30 05:42:11;;;;;;;21.92;15.57;;;10.50;99.90;;;;;;5056674;28;20033;-74
2022/09/30 05:44:36;;;;;;;21.65;15.63;;;10.50;99.90;;;;;;5056968;28;20025;-75
2022/09/30 05:47:02;;;;;;;24.95;16.77;;;10.50;99.90;;;;;;5056765;28;20025;-74
2022/09/30 05:49:27;;;;;;;23.95;16.65;;;10.50;99.90;;;;;;5038769;28;20029;-74
2022/09/30 05:51:53;;;;;;;23.33;16.25;;;10.50;99.90;;;;;;5056513;28;20029;-74
2022/09/30 05:54:19;;;;;;;23.33;15.82;;;10.60;99.90;;;;;;5039111;28;20029;-74
2022/09/30 05:56:44;;;;;;;22.15;15.65;;;10.50;99.90;;;;;;5038557;28;20029;-74
2022/09/30 05:59:10;;;;;;;24.17;17.27;;;10.60;99.90;;;;;;5038630;28;20025;-74
2022/09/30 06:01:36;;;;;;;20.15;15.93;;;10.50;99.90;;;;;;5056322;28;20032;-74
2022/09/30 06:04:01;;;;;;;24.35;16.98;;;10.50;99.90;;;;;;5038728;28;20056;-74
2022/09/30 06:06:29;;;;;;;24.48;16.73;;;10.50;99.90;;;;;;5039028;28;20469;-75
2022/09/30 06:08:55;;;;;;;21.00;16.00;;;10.50;99.90;;;;;;5038975;28;20533;-74
2022/09/30 06:11:23;;;;;;;23.17;17.35;;;10.60;99.90;;;;;;5056243;28;20067;-74
2022/09/30 06:13:50;;;;;;;19.77;14.93;;;10.60;99.90;;;;;;5038353;28;20025;-74
2022/09/30 06:16:17;;;;;;;22.17;15.27;;;10.50;99.90;;;;;;5055872;28;20033;-74
2022/09/30 06:18:44;;;;;;;23.10;15.32;;;10.50;99.90;;;;;;5038873;28;20036;-74
2022/09/30 06:21:12;;;;;;;23.25;15.10;;;10.50;99.90;;;;;;5040263;28;20111;-74
2022/09/30 06:23:38;;;;;;;18.80;14.65;;;10.60;99.90;;;;;;5040771;28;20040;-75
2022/09/30 06:26:05;;;;;;;20.33;14.93;;;10.50;99.90;;;;;;5058743;28;20040;-74
2022/09/30 06:28:34;;;;;;;21.65;14.82;;;10.50;99.90;;;;;;5059087;28;20108;-74
2022/09/30 06:31:01;;;;;;;22.90;15.95;;;10.50;99.90;;;;;;5058230;28;20112;-74
2022/09/30 06:33:28;;;;;;;23.05;15.15;;;10.50;99.90;;;;;;5057641;28;20033;-74
2022/09/30 06:35:54;;;;;;;20.00;15.50;;;10.50;99.90;;;;;;5056771;28;20021;-74
2022/09/30 06:38:21;;;;;;;20.65;15.85;;;10.60;99.90;;;;;;5055871;28;20100;-75
2022/09/30 06:40:50;;;;;;;18.13;14.48;;;10.70;99.90;;;;;;5056479;28;20021;-74
2022/09/30 06:43:17;;;;;;;22.73;14.25;;;10.60;99.90;;;;;;5038285;28;20035;-74
2022/09/30 06:45:45;;;;;;;19.40;14.60;;;10.50;99.90;;;;;;5037950;28;20057;-74
2022/09/30 06:48:11;;;;;;;18.05;14.88;;;10.40;99.90;;;;;;5037929;28;20025;-74
2022/09/30 06:50:38;;;;;;;18.83;14.95;;;10.40;99.90;;;;;;5037806;28;20034;-74
2022/09/30 06:53:05;;;;;;;19.60;15.98;;;10.50;99.90;;;;;;5055998;28;20032;-74
2022/09/30 06:55:32;;;;;;;19.90;16.17;;;10.50;99.90;;;;;;5038288;28;20112;-74
2022/09/30 06:57:58;;;;;;;18.80;15.27;;;10.50;99.90;;;;;;5055777;28;20032;-75
2022/09/30 07:00:25;;;;;;;20.95;15.20;;;10.50;99.90;;;;;;5055593;28;20362;-75
2022/09/30 07:02:56;;;;;;;22.98;16.30;;;10.40;99.90;;;;;;5037678;28;20107;-74
2022/09/30 07:05:24;;;;;;;20.63;15.63;;;10.40;99.90;;;;;;5055630;28;20107;-75
2022/09/30 07:07:51;;;;;;;19.90;15.77;;;10.50;99.90;;;;;;5055962;28;20044;-74
2022/09/30 07:10:17;;;;;;;22.10;16.38;;;10.40;99.90;;;;;;5037659;28;20037;-74
2022/09/30 07:12:42;;;;;;;20.52;15.85;;;10.50;99.90;;;;;;5037557;28;20029;-74
2022/09/30 07:15:09;;;;;;;20.25;14.82;;;10.50;99.90;;;;;;5055191;28;20082;-74
2022/09/30 07:17:34;;;;;;;20.77;15.20;;;10.50;99.90;;;;;;5037215;28;20039;-74
2022/09/30 07:20:00;;;;;;;17.98;14.90;;;10.60;99.90;;;;;;5037472;28;20425;-74
2022/09/30 07:22:27;;;;;;;19.77;14.82;;;10.60;99.90;;;;;;5037661;28;20096;-74
2022/09/30 07:24:53;;;;;;;18.73;14.52;;;10.60;99.90;;;;;;5037340;28;20469;-74
2022/09/30 07:27:20;;;;;;;18.42;14.02;;;10.60;99.90;;;;;;5055494;28;20025;-74
2022/09/30 07:29:46;;;;;;;18.80;13.52;;;10.60;99.90;;;;;;5037759;28;20048;-75
2022/09/30 07:32:12;;;;;;;18.50;14.65;;;10.50;99.90;;;;;;5037137;28;20086;-74
2022/09/30 07:34:43;;;;;;;19.65;14.75;;;10.50;99.90;;;;;;5054771;28;20058;-74
2022/09/30 07:37:14;;;;;;;19.23;15.27;;;10.50;99.90;;;;;;5054440;28;20524;-74
2022/09/30 07:39:41;;;;;;;22.50;15.82;;;10.50;99.90;;;;;;5036914;28;20028;-74
2022/09/30 07:42:07;;;;;;;20.88;14.18;;;10.50;99.90;;;;;;5054712;28;20029;-74
2022/09/30 07:44:33;;;;;;;20.30;16.15;;;10.50;99.90;;;;;;5055567;28;20020;-74
2022/09/30 07:46:59;;;;;;;23.88;17.58;;;10.60;99.90;;;;;;5054821;28;20060;-74
2022/09/30 07:49:25;;;;;;;21.95;16.60;;;10.60;99.90;;;;;;5037989;28;20433;-74
2022/09/30 07:51:57;;;;;;;21.85;15.27;;;10.70;99.90;;;;;;5038453;28;20087;-74
2022/09/30 07:54:27;;;;;;;19.80;14.00;;;10.80;99.90;;;;;;5055941;28;20067;-74
2022/09/30 07:56:53;;;;;;;21.17;15.30;;;10.80;99.90;;;;;;5038611;28;20082;-74
2022/09/30 07:59:19;;;;;;;22.27;15.85;;;10.80;99.90;;;;;;5056695;28;20040;-74
2022/09/30 08:01:46;;;;;;;19.67;15.55;;;11.00;99.90;;;;;;5037695;28;20040;-75
2022/09/30 08:04:12;;;;;;;18.83;15.13;;;11.00;99.90;;;;;;5037887;28;20045;-74
2022/09/30 08:06:45;;;;;;;17.65;14.98;;;11.10;99.90;;;;;;5056916;28;20090;-74
2022/09/30 08:09:12;;;;;;;23.25;15.73;;;11.00;99.90;;;;;;5038881;28;20358;-74
2022/09/30 08:11:38;;;;;;;18.15;13.48;;;11.10;99.90;;;;;;5038381;28;20025;-74
2022/09/30 08:14:04;;;;;;;24.30;16.17;;;11.10;99.90;;;;;;5038527;28;20365;-74
2022/09/30 08:16:30;;;;;;;20.88;15.63;;;11.10;99.90;;;;;;5055726;28;20029;-73
2022/09/30 08:18:58;;;;;;;18.08;13.32;;;11.20;99.90;;;;;;5055448;28;20032;-74
2022/09/30 08:21:24;;;;;;;17.67;13.93;;;11.20;99.90;;;;;;5055336;28;20025;-73
2022/09/30 08:23:50;;;;;;;16.42;12.35;;;11.30;99.90;;;;;;5054432;28;20036;-73
2022/09/30 08:26:16;;;;;;;16.30;12.40;;;11.20;99.90;;;;;;5054415;28;20449;-73
2022/09/30 08:28:45;;;;;;;14.02;11.35;;;11.20;99.90;;;;;;5054558;28;20021;-73
2022/09/30 08:31:12;;;;;;;15.02;12.00;;;11.20;99.90;;;;;;5055354;28;20070;-73
2022/09/30 08:33:39;;;;;;;16.63;11.40;;;11.10;99.90;;;;;;5037148;28;20032;-73
2022/09/30 08:36:08;;;;;;;18.33;11.27;;;11.10;99.90;;;;;;5036647;28;20120;-73
2022/09/30 08:38:34;;;;;;;13.98;11.15;;;11.10;99.90;;;;;;5054528;28;20432;-74
2022/09/30 08:41:18;;;;;;;16.90;11.48;;;11.20;99.90;;;;;;5055432;28;20041;-74
2022/09/30 08:43:44;;;;;;;13.65;10.98;;;11.20;99.90;;;;;;5037083;28;20388;-74
2022/09/30 08:46:40;;;;;;;11.57;10.30;;;11.10;99.90;;;;;;5036202;28;20029;-73
2022/09/30 08:49:44;;;;;;;16.60;10.88;;;11.10;99.90;;;;;;5053804;28;20032;-74
2022/09/30 08:52:32;;;;;;;14.73;10.13;;;11.20;99.90;;;;;;4953806;29;20040;-73
2022/09/30 08:54:58;;;;;;;15.30;10.63;;;11.20;99.90;;;;;;5043082;28;20037;-73
2022/09/30 08:57:31;;;;;;;12.48;10.15;;;11.30;99.90;;;;;;5053380;28;20030;-73
2022/09/30 09:00:07;;;;;;;12.60;10.57;;;11.40;99.90;;;;;;5035824;28;20380;-73
2022/09/30 09:02:45;;;;;;;11.68;10.43;;;11.50;99.90;;;;;;5056631;28;20111;-73
2022/09/30 09:05:23;;;;;;;13.45;10.07;;;11.60;99.90;;;;;;5039517;28;20032;-73
2022/09/30 09:08:02;;;;;;;13.82;10.40;;;11.60;99.90;;;;;;5057700;28;20021;-74
2022/09/30 09:10:49;;;;;;;12.40;10.13;;;11.70;99.90;;;;;;5056814;28;20388;-73
2022/09/30 09:13:32;;;;;;;10.45;9.27;;;11.80;99.90;;;;;;5056931;28;20108;-73
2022/09/30 09:16:17;;;;;;;10.77;9.20;;;11.80;99.90;;;;;;5056913;28;20029;-73
2022/09/30 09:18:57;;;;;;;10.75;8.70;;;11.90;99.90;;;;;;5057132;28;20033;-74
2022/09/30 09:21:41;;;;;;;12.32;8.90;;;11.90;99.90;;;;;;5039012;28;20473;-73
2022/09/30 09:24:39;;;;;;;10.80;8.60;;;11.90;99.90;;;;;;5056914;28;20032;-72
2022/09/30 09:27:23;;;;;;;13.32;9.43;;;11.90;99.90;;;;;;5056940;28;20388;-73
2022/09/30 09:30:00;;;;;;;9.85;8.85;;;12.00;99.90;;;;;;5056812;28;20025;-73
2022/09/30 09:32:27;;;;;;;11.13;8.52;;;12.00;99.90;;;;;;5057025;28;20036;-73
2022/09/30 09:35:34;;;;;;;10.38;8.70;;;12.00;99.90;;;;;;5039404;28;20093;-73
2022/09/30 09:38:24;;;;;;;10.93;8.82;;;12.20;99.90;;;;;;5043411;28;20040;-73
2022/09/30 09:41:19;;;;;;;10.65;8.38;;;12.20;99.90;;;;;;5057148;28;20107;-73
2022/09/30 09:44:06;;;;;;;11.75;8.05;;;12.30;99.90;;;;;;5056579;28;20100;-73
2022/09/30 09:46:52;;;;;;;8.75;7.47;;;12.40;99.90;;;;;;5056266;28;20025;-73
2022/09/30 09:49:22;;;;;;;9.63;7.60;;;12.30;99.90;;;;;;5056416;28;20494;-73
2022/09/30 09:52:13;;;;;;;9.32;7.63;;;12.30;99.90;;;;;;5056431;28;20036;-73
2022/09/30 09:54:44;;;;;;;11.43;7.70;;;12.30;99.90;;;;;;5039359;28;20025;-74
2022/09/30 09:57:14;;;;;;;10.90;7.95;;;12.50;99.90;;;;;;5056433;28;20113;-73
2022/09/30 10:00:46;;;;;;;8.15;7.22;;;12.70;99.90;;;;;;5038534;28;20033;-73
2022/09/30 10:03:19;;;;;;;8.73;7.82;;;12.80;99.90;;;;;;5055443;28;20036;-73
2022/09/30 10:05:58;;;;;;;8.35;7.22;;;12.80;99.90;;;;;;5038197;28;20032;-72
2022/09/30 10:08:24;;;;;;;8.80;7.90;;;12.80;99.90;;;;;;5038164;28;20163;-73
2022/09/30 10:10:54;;;;;;;8.13;7.03;;;12.60;99.90;;;;;;5056181;28;20362;-73
2022/09/30 10:13:23;;;;;;;8.35;7.15;;;12.40;99.90;;;;;;5036885;28;20029;-73
2022/09/30 10:15:55;;;;;;;10.30;8.20;;;12.30;99.90;;;;;;5038128;28;20115;-73
2022/09/30 10:18:26;;;;;;;11.13;7.25;;;12.30;99.90;;;;;;5055757;28;20128;-73
2022/09/30 10:20:59;;;;;;;7.70;6.88;;;12.40;99.90;;;;;;5038602;28;20029;-73
2022/09/30 10:23:30;;;;;;;13.30;7.55;;;12.30;99.90;;;;;;5038327;28;20108;-72
2022/09/30 10:26:02;;;;;;;9.77;7.68;;;12.20;99.90;;;;;;5038011;28;20025;-72
2022/09/30 10:28:31;;;;;;;10.55;7.88;;;12.20;99.90;;;;;;5055941;28;20025;-72
2022/09/30 10:31:10;;;;;;;13.75;7.75;;;12.30;99.90;;;;;;5055973;28;20119;-73
2022/09/30 10:33:45;;;;;;;10.77;6.82;;;12.30;99.90;;;;;;5038329;28;20040;-74
2022/09/30 10:36:18;;;;;;;7.95;7.05;;;12.40;99.90;;;;;;5055627;28;20032;-73
2022/09/30 10:38:56;;;;;;;9.93;6.82;;;12.40;99.90;;;;;;5038021;28;20028;-73
2022/09/30 10:41:26;;;;;;;8.15;6.40;;;12.50;99.90;;;;;;5055722;28;20076;-73
2022/09/30 10:43:55;;;;;;;8.20;5.93;;;12.60;99.90;;;;;;5037600;28;20350;-72
2022/09/30 10:46:25;;;;;;;;;;;12.70;99.90;;;;;;5038499;28;20025;-72
2022/09/30 10:48:53;;;;;;;5.72;5.18;;;12.90;99.90;;;;;;5055648;28;19904;-72
2022/09/30 10:51:45;;;;;;;6.78;5.72;;;13.10;99.90;;;;;;5055328;28;20029;-72
2022/09/30 10:54:39;;;;;;;6.15;5.22;;;13.40;99.90;;;;;;5050496;28;20041;-73
2022/09/30 10:57:13;;;;;;;6.70;5.57;;;13.70;99.90;;;;;;5037743;28;20532;-73
2022/09/30 10:59:41;;;;;;;6.57;4.65;;;13.80;99.90;;;;;;5037404;28;20457;-73
2022/09/30 11:02:19;;;;;;;6.53;4.85;;;14.00;99.90;;;;;;5037480;28;20075;-73
2022/09/30 11:04:58;;;;;;;7.10;5.60;;;14.10;99.90;;;;;;5054596;28;20125;-72
2022/09/30 11:07:52;;;;;;;5.47;4.80;;;14.00;99.90;;;;;;5055105;28;20025;-72
2022/09/30 11:10:41;;;;;;;8.68;5.13;;;14.10;99.90;;;;;;5055344;28;20020;-72
2022/09/30 11:13:26;;;;;;;5.78;4.75;;;14.00;99.90;;;;;;5037513;28;20024;-73
2022/09/30 11:16:31;;;;;;;5.70;4.70;;;13.90;99.90;;;;;;5037057;28;20423;-73
2022/09/30 11:19:17;;;;;;;3.85;3.55;;;14.10;99.90;;;;;;5036684;28;20028;-73
2022/09/30 11:22:06;;;;;;;4.85;3.88;;;14.40;99.90;;;;;;5037453;28;20029;-72
2022/09/30 11:24:41;;;;;;;3.80;3.50;;;14.80;99.90;;;;;;4986723;28;20060;-73
2022/09/30 11:27:28;;;;;;;4.03;3.72;;;15.00;99.90;;;;;;5036913;28;20029;-73
2022/09/30 11:30:27;;;;;;;3.75;3.45;;;15.10;99.90;;;;;;5036734;28;20083;-73
2022/09/30 11:33:24;;;;;;;5.30;3.70;;;15.30;99.90;;;;;;5036652;28;20105;-72
2022/09/30 11:36:03;;;;;;;3.85;3.00;;;15.60;99.90;;;;;;5054257;28;20529;-72
2022/09/30 11:38:37;;;;;;;;;;;16.30;99.90;;;;;;5036952;28;20041;-72
2022/09/30 11:41:30;;;;;;;4.28;3.33;;;16.70;99.90;;;;;;5036396;28;19912;-72
2022/09/30 11:44:20;;;;;;;4.13;3.10;;;16.70;99.90;;;;;;5054014;28;20024;-73
2022/09/30 11:47:12;;;;;;;3.60;3.05;;;16.70;99.90;;;;;;5054359;28;20040;-73
2022/09/30 11:49:57;;;;;;;4.68;3.15;;;16.60;99.90;;;;;;5036328;28;20029;-73
2022/09/30 11:52:29;;;;;;;3.17;2.88;;;16.60;99.90;;;;;;5036361;28;20065;-73
2022/09/30 11:55:09;;;;;;;4.88;2.65;;;16.40;99.90;;;;;;5054115;28;20028;-73
2022/09/30 11:57:59;;;;;;;3.00;2.80;;;16.20;99.90;;;;;;5036283;28;20029;-73
2022/09/30 12:00:27;;;;;;;4.53;2.58;;;16.80;99.90;;;;;;5036390;28;20037;-73
2022/09/30 12:03:00;;;;;;;3.25;2.70;;;17.20;99.90;;;;;;5035919;28;20048;-73
2022/09/30 12:05:44;;;;;;;2.33;2.13;;;17.40;99.90;;;;;;5053960;28;20021;-73
2022/09/30 12:08:18;;;;;;;5.65;2.80;;;17.50;99.90;;;;;;5036245;28;20044;-73
2022/09/30 12:10:55;;;;;;;4.20;2.65;;;17.30;99.90;;;;;;5035614;28;20025;-73
2022/09/30 12:13:28;;;;;;;4.72;3.10;;;16.90;99.90;;;;;;5036308;28;20087;-73
2022/09/30 12:15:57;;;;;;;2.72;2.40;;;16.50;99.90;;;;;;5036267;28;20052;-73
2022/09/30 12:18:52;;;;;;;2.47;2.28;;;16.30;99.90;;;;;;5053845;28;20408;-73
2022/09/30 12:21:44;;;;;;;4.47;2.63;;;16.10;99.90;;;;;;4998173;28;20029;-73
2022/09/30 12:24:26;;;;;;;3.65;2.10;;;15.80;99.90;;;;;;5005565;28;20040;-73
2022/09/30 12:26:52;;;;;;;5.22;2.38;;;15.90;99.90;;;;;;5053474;28;20381;-73
2022/09/30 12:32:35;;;;;;;3.60;2.55;;;15.80;99.90;;;;;;5053240;28;20036;-73
2022/09/30 12:35:14;;;;;;;2.42;1.90;;;15.60;99.90;;;;;;5036050;28;20033;-73
2022/09/30 12:37:57;;;;;;;1.95;1.60;;;15.80;99.90;;;;;;5035313;28;20111;-72
2022/09/30 12:41:01;;;;;;;2.45;2.03;;;16.40;99.90;;;;;;5053279;28;20036;-72
2022/09/30 12:43:48;;;;;;;2.30;1.70;;;16.50;99.90;;;;;;5035527;28;20373;-72
2022/09/30 12:46:14;;;;;;;2.08;1.60;;;16.40;99.90;;;;;;5036164;28;20032;-73
2022/09/30 12:48:42;;;;;;;2.15;1.98;;;16.30;99.90;;;;;;5035565;28;20423;-72
2022/09/30 12:51:19;;;;;;;1.63;1.52;;;16.20;99.90;;;;;;5053433;28;20063;-72
2022/09/30 12:53:50;;;;;;;2.00;1.90;;;16.50;99.90;;;;;;5053175;28;20392;-72
2022/09/30 12:56:17;;;;;;;1.52;1.42;;;16.40;99.90;;;;;;5035522;28;20029;-72
2022/09/30 12:58:47;;;;;;;2.10;1.83;;;16.90;99.90;;;;;;5035531;28;20071;-72
2022/09/30 13:01:29;;;;;;;2.55;1.70;;;18.10;99.90;;;;;;5035450;28;20028;-72
2022/09/30 13:04:00;;;;;;;1.25;1.17;;;19.70;99.90;;;;;;5053390;28;20045;-73
2022/09/30 13:06:44;;;;;;;1.25;0.95;;;21.40;99.90;;;;;;5053046;28;20029;-73
2022/09/30 13:09:15;;;;;;;1.52;1.15;;;22.00;96.50;;;;;;5053275;28;20564;-73
2022/09/30 13:11:43;;;;;;;2.40;1.10;;;22.60;93.20;;;;;;5053578;28;20057;-73
2022/09/30 13:14:42;;;;;;;1.33;1.05;;;22.60;92.70;;;;;;5035380;28;20033;-73
2022/09/30 13:17:11;;;;;;;1.27;1.17;;;22.50;90.40;;;;;;5035683;28;20021;-73